createdAt,value
2018-12-07T00:02:27.442Z,74.37
2018-12-07T00:07:30.911Z,66.33
2018-12-07T00:12:34.374Z,65.90
2018-12-07T00:17:37.814Z,59.70
2018-12-07T00:22:41.275Z,60.20
2018-12-07T00:27:44.892Z,52.80
2018-12-07T00:32:48.338Z,51.23
2018-12-07T00:37:51.746Z,50.27
2018-12-07T00:42:55.227Z,45.03
2018-12-07T00:47:58.657Z,48.20
2018-12-07T00:53:02.482Z,42.60
2018-12-07T00:58:06.089Z,39.37
2018-12-07T01:03:09.707Z,38.13
2018-12-07T01:08:13.257Z,38.37
2018-12-07T01:13:16.662Z,33.43
2018-12-07T01:18:20.381Z,33.67
2018-12-07T01:23:23.960Z,29.70
2018-12-07T01:28:27.639Z,27.10
2018-12-07T01:33:31.213Z,27.13
2018-12-07T01:38:36.868Z,22.63
2018-12-07T01:43:40.386Z,23.33
2018-12-07T01:48:43.887Z,22.63
2018-12-07T01:53:47.427Z,21.57
2018-12-07T01:58:50.803Z,19.67
2018-12-07T02:03:54.221Z,15.53
2018-12-07T02:08:57.646Z,16.37
2018-12-07T02:14:01.187Z,12.10
2018-12-07T02:19:04.973Z,15.27
2018-12-07T02:24:08.467Z,17.20
2018-12-07T02:29:12.214Z,16.97
2018-12-07T02:34:15.739Z,17.27
2018-12-07T02:39:19.343Z,14.73
2018-12-07T02:44:22.922Z,15.70
2018-12-07T02:49:26.717Z,15.70
2018-12-07T02:54:30.135Z,14.63
2018-12-07T02:59:33.522Z,13.10
2018-12-07T03:04:36.924Z,13.10
2018-12-07T03:09:40.527Z,12.53
2018-12-07T03:14:44.013Z,11.30
2018-12-07T03:19:47.463Z,9.30
2018-12-07T03:24:51.103Z,12.00
2018-12-07T03:29:54.540Z,11.23
2018-12-07T03:34:57.949Z,11.33
2018-12-07T03:40:01.464Z,12.33
2018-12-07T03:45:05.533Z,12.90
2018-12-07T03:50:09.150Z,13.97
2018-12-07T03:55:13.005Z,13.87
2018-12-07T04:00:16.431Z,13.63
2018-12-07T04:05:20.106Z,12.67
2018-12-07T04:10:24.000Z,12.17
2018-12-07T04:15:27.648Z,12.30
2018-12-07T04:20:31.040Z,13.37
2018-12-07T04:25:34.573Z,11.00
2018-12-07T04:30:40.138Z,13.83
2018-12-07T04:35:43.745Z,10.87
2018-12-07T04:40:47.230Z,11.67
2018-12-07T04:45:50.727Z,13.13
2018-12-07T04:50:54.226Z,10.07
2018-12-07T04:55:57.787Z,9.53
2018-12-07T05:01:01.253Z,10.83
2018-12-07T05:06:04.869Z,10.43
2018-12-07T05:11:08.439Z,11.13
2018-12-07T05:16:11.889Z,14.80
2018-12-07T05:21:15.296Z,11.23
2018-12-07T05:26:18.832Z,15.83
2018-12-07T05:31:22.383Z,14.17
2018-12-07T05:36:26.005Z,14.90
2018-12-07T05:41:29.464Z,16.50
2018-12-07T05:46:33.035Z,15.23
2018-12-07T05:51:36.542Z,17.60
2018-12-07T05:56:40.008Z,19.93
2018-12-07T06:01:43.576Z,23.90
2018-12-07T06:06:46.970Z,22.93
2018-12-07T06:11:50.455Z,25.67
2018-12-07T06:16:53.920Z,28.00
2018-12-07T06:21:57.393Z,27.93
2018-12-07T06:27:02.100Z,28.50
2018-12-07T06:32:05.591Z,33.40
2018-12-07T06:37:09.386Z,33.43
2018-12-07T06:42:12.791Z,32.93
2018-12-07T06:47:16.450Z,30.97
2018-12-07T06:52:19.930Z,33.07
2018-12-07T06:57:23.689Z,34.47
2018-12-07T07:02:28.271Z,32.27
2018-12-07T07:07:31.980Z,28.83
2018-12-07T07:12:35.511Z,28.10
2018-12-07T07:17:39.097Z,27.80
2018-12-07T07:22:42.615Z,23.40
2018-12-07T07:27:46.327Z,21.73
2018-12-07T07:32:49.863Z,22.27
2018-12-07T07:37:53.442Z,19.87
2018-12-07T07:42:57.011Z,19.40
2018-12-07T07:48:00.692Z,21.10
2018-12-07T07:53:04.742Z,18.27
2018-12-07T07:58:08.352Z,18.57
2018-12-07T08:03:11.805Z,16.30
2018-12-07T08:08:15.307Z,16.53
2018-12-07T08:13:18.776Z,15.50
2018-12-07T08:18:22.251Z,16.23
2018-12-07T08:23:25.694Z,16.33
2018-12-07T08:28:29.265Z,16.17
2018-12-07T08:33:32.765Z,14.37
2018-12-07T08:38:36.249Z,13.67
2018-12-07T08:43:39.907Z,16.87
2018-12-07T08:48:43.350Z,13.63
2018-12-07T08:53:46.907Z,14.17
2018-12-07T08:58:50.880Z,12.90
2018-12-07T09:03:55.074Z,11.23
2018-12-07T09:08:58.579Z,12.27
2018-12-07T09:14:01.951Z,10.50
2018-12-07T09:19:05.450Z,12.07
2018-12-07T09:24:08.959Z,12.00
2018-12-07T09:29:12.542Z,11.70
2018-12-07T09:34:16.313Z,11.87
2018-12-07T09:39:19.931Z,12.27
2018-12-07T09:44:23.518Z,10.57
2018-12-07T09:49:27.005Z,11.43
2018-12-07T09:54:30.547Z,10.70
2018-12-07T09:59:35.273Z,9.80
2018-12-07T10:04:38.762Z,6.57
2018-12-07T10:09:42.311Z,6.57
2018-12-07T10:14:45.763Z,7.07
2018-12-07T10:19:49.305Z,4.80
2018-12-07T10:24:52.840Z,3.40
2018-12-07T10:29:56.387Z,3.07
2018-12-07T10:34:59.854Z,3.80
2018-12-07T10:40:04.123Z,3.47
2018-12-07T10:45:08.185Z,3.37
2018-12-07T10:50:11.519Z,3.77
2018-12-07T10:55:15.167Z,3.30
2018-12-07T11:00:25.555Z,4.50
2018-12-07T11:05:34.772Z,3.93
2018-12-07T11:10:44.038Z,4.30
2018-12-07T11:16:56.928Z,3.30
2018-12-07T11:22:06.050Z,3.13
2018-12-07T11:32:38.156Z,4.03
2018-12-07T11:37:41.736Z,4.17
2018-12-07T11:42:45.229Z,4.07
2018-12-07T11:47:48.879Z,4.63
2018-12-07T11:52:52.403Z,5.10
2018-12-07T11:57:57.041Z,4.37
2018-12-07T12:03:00.975Z,4.53
2018-12-07T12:08:04.564Z,4.70
2018-12-07T12:13:08.315Z,4.83
2018-12-07T12:18:11.770Z,4.50
2018-12-07T12:23:15.283Z,4.20
2018-12-07T12:28:18.893Z,3.53
2018-12-07T12:33:22.483Z,4.83
2018-12-07T12:38:25.933Z,3.40
2018-12-07T12:43:29.696Z,3.30
2018-12-07T12:48:33.677Z,3.13
2018-12-07T12:53:37.380Z,3.37
2018-12-07T12:58:40.914Z,5.07
2018-12-07T13:03:44.482Z,5.47
2018-12-07T13:08:47.967Z,5.20
2018-12-07T13:13:51.490Z,5.70
2018-12-07T13:18:55.312Z,7.30
2018-12-07T13:23:58.873Z,8.27
2018-12-07T13:29:02.444Z,8.70
2018-12-07T13:34:07.278Z,8.83
2018-12-07T13:39:13.255Z,9.17
2018-12-07T13:44:17.530Z,8.63
2018-12-07T13:49:21.456Z,9.43
2018-12-07T13:54:25.430Z,9.10
2018-12-07T13:59:29.271Z,9.03
2018-12-07T14:04:33.151Z,10.93
2018-12-07T14:09:36.887Z,9.33
2018-12-07T14:14:40.745Z,9.10
2018-12-07T14:19:44.494Z,10.80
2018-12-07T14:24:48.222Z,10.03
2018-12-07T14:29:51.895Z,10.60
2018-12-07T14:34:55.514Z,10.00
2018-12-07T14:39:59.209Z,11.30
2018-12-07T14:45:03.286Z,11.27
2018-12-07T14:50:07.688Z,12.27
2018-12-07T14:55:11.603Z,12.47
2018-12-07T15:00:15.447Z,14.80
2018-12-07T15:05:19.078Z,13.10
2018-12-07T15:10:23.088Z,14.53
2018-12-07T15:15:26.760Z,12.40
2018-12-07T15:20:30.392Z,13.53
2018-12-07T15:25:34.247Z,13.07
2018-12-07T15:30:39.062Z,15.30
2018-12-07T15:35:42.934Z,16.13
2018-12-07T15:40:46.694Z,19.83
2018-12-07T15:45:50.613Z,19.73
2018-12-07T15:50:54.146Z,21.77
2018-12-07T15:55:57.748Z,24.77
2018-12-07T16:01:01.736Z,28.80
2018-12-07T16:06:05.280Z,29.93
2018-12-07T16:11:09.233Z,31.87
2018-12-07T16:16:12.807Z,35.83
2018-12-07T16:21:16.565Z,34.77
2018-12-07T16:26:20.360Z,38.03
2018-12-07T16:31:24.410Z,34.93
2018-12-07T16:36:28.832Z,36.50
2018-12-07T16:41:32.615Z,37.03
2018-12-07T16:46:36.547Z,33.40
2018-12-07T16:51:40.314Z,27.93
2018-12-07T16:56:44.236Z,25.20
2018-12-07T17:01:48.020Z,27.33
2018-12-07T17:06:51.658Z,21.77
2018-12-07T17:11:55.520Z,21.20
2018-12-07T17:17:00.293Z,21.50
2018-12-07T17:22:04.017Z,18.80
2018-12-07T17:27:07.613Z,17.33
2018-12-07T17:32:11.335Z,18.73
2018-12-07T17:37:15.204Z,18.47
2018-12-07T17:42:18.832Z,14.70
2018-12-07T17:47:22.540Z,13.10
2018-12-07T17:52:26.124Z,10.73
2018-12-07T17:57:29.911Z,12.07
2018-12-07T18:02:33.769Z,10.60
2018-12-07T18:07:38.029Z,10.63
2018-12-07T18:12:41.720Z,13.40
2018-12-07T18:17:45.345Z,9.60
2018-12-07T18:22:49.133Z,9.73
2018-12-07T18:27:53.132Z,10.10
2018-12-07T18:32:56.710Z,9.13
2018-12-07T18:38:01.256Z,9.77
2018-12-07T18:43:05.237Z,9.43
2018-12-07T18:48:09.033Z,8.87
2018-12-07T18:53:12.570Z,9.47
2018-12-07T18:58:16.467Z,9.60
2018-12-07T19:03:20.290Z,9.93
2018-12-07T19:08:24.003Z,10.23
2018-12-07T19:13:27.536Z,10.40
2018-12-07T19:18:31.583Z,11.17
2018-12-07T19:23:35.344Z,10.03
2018-12-07T19:28:40.291Z,8.47
2018-12-07T19:33:43.818Z,9.53
2018-12-07T19:38:47.494Z,9.90
2018-12-07T19:43:51.073Z,9.77
2018-12-07T19:48:55.077Z,9.53
2018-12-07T19:53:58.689Z,9.00
2018-12-07T19:59:02.405Z,8.73
2018-12-07T20:04:06.221Z,8.83
2018-12-07T20:09:10.918Z,10.07
2018-12-07T20:14:14.536Z,9.33
2018-12-07T20:19:18.325Z,3.00
2018-12-07T20:24:21.865Z,2.80
2018-12-07T20:29:25.801Z,4.43
2018-12-07T20:34:29.436Z,2.70
2018-12-07T20:39:34.320Z,6.37
2018-12-07T20:44:37.952Z,10.30
2018-12-07T20:49:41.768Z,9.03
2018-12-07T20:54:45.497Z,14.80
2018-12-07T20:59:49.125Z,10.60
2018-12-07T21:04:56.316Z,9.97
2018-12-07T21:10:55.856Z,15.23
2018-12-07T21:17:15.301Z,11.10
2018-12-07T21:22:19.250Z,11.73
2018-12-07T21:27:23.058Z,13.53
2018-12-07T21:32:26.867Z,8.73
2018-12-07T21:37:30.930Z,14.50
2018-12-07T21:42:35.087Z,14.97
2018-12-07T21:48:52.358Z,16.93
2018-12-07T21:53:56.017Z,18.37
2018-12-07T21:58:59.827Z,19.67
2018-12-07T22:04:03.946Z,12.67
2018-12-07T22:09:08.136Z,10.57
2018-12-07T22:14:12.924Z,14.03
2018-12-07T22:19:16.549Z,18.13
2018-12-07T22:24:20.188Z,17.23
2018-12-07T22:29:25.520Z,17.57
2018-12-07T22:34:29.446Z,13.10
2018-12-07T22:39:33.259Z,12.60
2018-12-07T22:44:36.959Z,12.80
2018-12-07T22:49:40.511Z,10.67
2018-12-07T22:54:44.024Z,9.03
2018-12-07T22:59:47.750Z,12.10
2018-12-07T23:04:51.329Z,16.00
2018-12-07T23:09:55.172Z,16.02
2018-12-07T23:14:58.946Z,17.17
2018-12-07T23:20:03.363Z,14.57
2018-12-07T23:25:07.421Z,14.97
2018-12-07T23:30:11.195Z,17.67
2018-12-07T23:35:14.764Z,16.33
2018-12-07T23:40:18.562Z,17.00
2018-12-07T23:45:22.151Z,17.50
2018-12-07T23:50:26.742Z,19.20
2018-12-07T23:55:30.464Z,22.83
